首页
METAR-TAF:

METAR-TAF

机场 :

Kinloss, 苏格兰

纬度: 57-39N, 经度: 003-34W, 海拔: 7米

当前天气观测

该预报发布于28分钟前的21:50 UTC
风速9节,风向
温度 9°C
湿度 71%
气压 1021 hPa
能见度10公里或以上

METAR: EGQK 262150Z AUTO 35009KT 9999 FEW026/// BKN032/// 09/04 Q1021

时间: 23:18 (22:18 UTC)

预报

该预报发布于33小时和14分钟前的13:04 UTC
预报有效从25日的 15点(UTC)到 26日的 09点(UTC)
风速15节,风向北转西北
能见度10公里或以上
散云层高于3500英尺
几率 30% :
短暂存在
从 25日的 15点(UTC)到 25日的 17点(UTC)
风速15节,风向,有时为25节阵风
成为
从 25日的 21点(UTC)到 25日的 24点(UTC)
风速12节,风向西北

TAF: EGQK 251304Z 2515/2609 34015KT 9999 SCT035 PROB30 TEMPO 2515/2517 36015G25KT BECMG 2521/2524 31012KT

超过4000个机场的气象观测和天气预报(METAR&TAF报告)。

可查询的气象台以黄色和红色小点在地图上表示。

将鼠标移到小点上方,可查看气象台名称。

然后点击查看天气观测和预报。

如需切换地图:点击带黑十字的绿色按钮放大地图;点击带横线的绿色按钮缩小地图;或者点击绿色箭头查看邻近地区的地图。


METAR-TAF: